sensor_id;sensor_type;location;lat;lon;timestamp;pressure;altitude;pressure_sealevel;temperature;humidity
68230;BME280;55048;52.220;5.160;2023-02-14T00:02:05;103348.69;;;5.96;82.37
68230;BME280;55048;52.220;5.160;2023-02-14T00:04:30;103352.59;;;5.92;82.01
68230;BME280;55048;52.220;5.160;2023-02-14T00:06:57;103348.00;;;5.84;82.31
68230;BME280;55048;52.220;5.160;2023-02-14T00:09:22;103394.28;;;6.08;82.83
68230;BME280;55048;52.220;5.160;2023-02-14T00:11:48;103151.34;;;4.57;82.43
68230;BME280;55048;52.220;5.160;2023-02-14T00:14:15;103360.50;;;5.82;82.54
68230;BME280;55048;52.220;5.160;2023-02-14T00:16:59;103377.06;;;5.94;82.42
68230;BME280;55048;52.220;5.160;2023-02-14T00:19:25;103376.25;;;5.94;82.47
68230;BME280;55048;52.220;5.160;2023-02-14T00:21:51;103386.22;;;5.90;82.54
68230;BME280;55048;52.220;5.160;2023-02-14T00:24:21;103420.00;;;6.16;82.59
68230;BME280;55048;52.220;5.160;2023-02-14T00:26:48;103410.38;;;6.14;82.64
68230;BME280;55048;52.220;5.160;2023-02-14T00:29:17;103366.81;;;5.72;82.63
68230;BME280;55048;52.220;5.160;2023-02-14T00:31:44;103417.47;;;6.14;82.65
68230;BME280;55048;52.220;5.160;2023-02-14T00:34:10;103150.94;;;4.52;82.41
68230;BME280;55048;52.220;5.160;2023-02-14T00:36:36;103419.44;;;6.12;82.79
68230;BME280;55048;52.220;5.160;2023-02-14T00:39:07;103407.22;;;6.11;82.69
68230;BME280;55048;52.220;5.160;2023-02-14T00:41:35;103389.69;;;6.00;82.79
68230;BME280;55048;52.220;5.160;2023-02-14T00:44:01;103405.66;;;6.08;82.65
68230;BME280;55048;52.220;5.160;2023-02-14T00:46:27;103407.91;;;6.03;82.57
68230;BME280;55048;52.220;5.160;2023-02-14T00:48:54;103377.50;;;5.70;82.81
68230;BME280;55048;52.220;5.160;2023-02-14T00:51:19;103402.22;;;5.98;82.71
68230;BME280;55048;52.220;5.160;2023-02-14T00:53:47;103364.72;;;5.75;82.47
68230;BME280;55048;52.220;5.160;2023-02-14T00:56:14;103386.22;;;5.90;82.71
68230;BME280;55048;52.220;5.160;2023-02-14T00:58:41;103250.09;;;5.02;82.55
68230;BME280;55048;52.220;5.160;2023-02-14T01:01:07;103391.09;;;5.85;82.86
68230;BME280;55048;52.220;5.160;2023-02-14T01:03:34;103392.19;;;5.82;83.12
68230;BME280;55048;52.220;5.160;2023-02-14T01:05:59;103326.03;;;5.37;82.84
68230;BME280;55048;52.220;5.160;2023-02-14T01:08:25;103384.69;;;5.78;82.74
68230;BME280;55048;52.220;5.160;2023-02-14T01:10:51;103342.94;;;5.54;82.89
68230;BME280;55048;52.220;5.160;2023-02-14T01:13:18;103332.81;;;5.40;82.89
68230;BME280;55048;52.220;5.160;2023-02-14T01:15:46;103331.16;;;5.38;83.09
68230;BME280;55048;52.220;5.160;2023-02-14T01:18:13;103337.81;;;5.43;83.15
68230;BME280;55048;52.220;5.160;2023-02-14T01:20:39;103359.88;;;5.61;83.54
68230;BME280;55048;52.220;5.160;2023-02-14T01:23:05;103377.50;;;5.70;83.36
68230;BME280;55048;52.220;5.160;2023-02-14T01:25:30;103367.22;;;5.67;82.86
68230;BME280;55048;52.220;5.160;2023-02-14T01:27:58;103240.13;;;4.86;82.96
68230;BME280;55048;52.220;5.160;2023-02-14T01:30:24;103307.00;;;5.24;83.06
68230;BME280;55048;52.220;5.160;2023-02-14T01:32:49;103299.66;;;5.18;83.04
68230;BME280;55048;52.220;5.160;2023-02-14T01:35:15;103337.41;;;5.37;83.23
68230;BME280;55048;52.220;5.160;2023-02-14T01:37:41;103316.59;;;5.15;83.25
68230;BME280;55048;52.220;5.160;2023-02-14T01:40:08;103221.22;;;4.61;83.23
68230;BME280;55048;52.220;5.160;2023-02-14T01:42:34;103378.38;;;5.51;83.37
68230;BME280;55048;52.220;5.160;2023-02-14T01:45:21;103378.66;;;5.48;83.23
68230;BME280;55048;52.220;5.160;2023-02-14T01:47:52;103378.78;;;5.47;83.67
68230;BME280;55048;52.220;5.160;2023-02-14T01:50:24;103326.56;;;5.11;83.47
68230;BME280;55048;52.220;5.160;2023-02-14T01:52:56;103337.97;;;5.22;83.32
68230;BME280;55048;52.220;5.160;2023-02-14T01:55:27;103346.28;;;5.17;83.35
68230;BME280;55048;52.220;5.160;2023-02-14T01:58:20;103327.72;;;5.09;83.56
68230;BME280;55048;52.220;5.160;2023-02-14T02:00:48;103303.53;;;4.94;83.61
68230;BME280;55048;52.220;5.160;2023-02-14T02:03:40;103320.47;;;5.01;83.40
68230;BME280;55048;52.220;5.160;2023-02-14T02:06:13;103366.97;;;5.31;83.97
68230;BME280;55048;52.220;5.160;2023-02-14T02:09:07;103176.28;;;4.15;83.79
68230;BME280;55048;52.220;5.160;2023-02-14T02:11:32;103376.84;;;5.29;83.94
68230;BME280;55048;52.220;5.160;2023-02-14T02:13:58;103243.44;;;4.49;83.77
68230;BME280;55048;52.220;5.160;2023-02-14T02:21:52;103316.44;;;4.88;83.51
68230;BME280;55048;52.220;5.160;2023-02-14T02:24:36;103282.56;;;4.64;83.31
68230;BME280;55048;52.220;5.160;2023-02-14T02:27:23;103366.97;;;5.12;83.23
68230;BME280;55048;52.220;5.160;2023-02-14T02:44:39;103361.41;;;4.96;83.26
68230;BME280;55048;52.220;5.160;2023-02-14T02:55:49;103359.47;;;4.88;83.40
68230;BME280;55048;52.220;5.160;2023-02-14T02:58:45;103327.94;;;4.67;83.22
68230;BME280;55048;52.220;5.160;2023-02-14T03:01:16;103366.81;;;4.84;83.39
68230;BME280;55048;52.220;5.160;2023-02-14T03:03:45;103283.63;;;4.42;83.58
68230;BME280;55048;52.220;5.160;2023-02-14T03:06:31;103344.06;;;4.83;83.50
68230;BME280;55048;52.220;5.160;2023-02-14T03:09:48;103349.63;;;4.80;83.56
68230;BME280;55048;52.220;5.160;2023-02-14T03:15:21;103302.81;;;4.53;83.32
68230;BME280;55048;52.220;5.160;2023-02-14T03:18:08;103329.47;;;4.70;83.41
68230;BME280;55048;52.220;5.160;2023-02-14T03:23:27;103333.06;;;4.69;83.33
68230;BME280;55048;52.220;5.160;2023-02-14T03:25:57;103336.53;;;4.69;83.67
68230;BME280;55048;52.220;5.160;2023-02-14T03:28:41;103338.19;;;4.70;83.46
68230;BME280;55048;52.220;5.160;2023-02-14T03:33:54;103241.00;;;4.07;83.02
68230;BME280;55048;52.220;5.160;2023-02-14T03:36:27;103332.94;;;4.70;83.06
68230;BME280;55048;52.220;5.160;2023-02-14T03:39:20;103336.69;;;4.68;82.72
68230;BME280;55048;52.220;5.160;2023-02-14T03:41:53;103291.66;;;4.30;82.81
68230;BME280;55048;52.220;5.160;2023-02-14T03:44:24;103269.03;;;4.18;82.86
68230;BME280;55048;52.220;5.160;2023-02-14T03:46:56;103331.41;;;4.58;82.74
68230;BME280;55048;52.220;5.160;2023-02-14T03:49:26;103334.28;;;4.55;82.79
68230;BME280;55048;52.220;5.160;2023-02-14T03:51:55;103334.69;;;4.50;82.96
68230;BME280;55048;52.220;5.160;2023-02-14T03:54:24;103310.38;;;4.37;83.05
68230;BME280;55048;52.220;5.160;2023-02-14T03:56:58;103181.63;;;3.53;82.83
68230;BME280;55048;52.220;5.160;2023-02-14T03:59:26;103297.16;;;4.18;82.92
68230;BME280;55048;52.220;5.160;2023-02-14T04:04:21;103300.38;;;4.21;82.91
68230;BME280;55048;52.220;5.160;2023-02-14T04:06:47;103301.19;;;4.22;82.84
68230;BME280;55048;52.220;5.160;2023-02-14T04:09:13;103167.75;;;3.42;82.75
68230;BME280;55048;52.220;5.160;2023-02-14T04:11:38;103247.69;;;3.81;83.12
68230;BME280;55048;52.220;5.160;2023-02-14T04:14:04;103316.97;;;4.12;83.18
68230;BME280;55048;52.220;5.160;2023-02-14T04:16:30;103255.59;;;3.81;83.10
68230;BME280;55048;52.220;5.160;2023-02-14T04:19:16;103288.63;;;3.95;83.25
68230;BME280;55048;52.220;5.160;2023-02-14T04:21:48;103218.19;;;3.47;83.36
68230;BME280;55048;52.220;5.160;2023-02-14T04:24:13;103275.31;;;3.96;83.46
68230;BME280;55048;52.220;5.160;2023-02-14T04:26:39;103261.56;;;3.83;83.39
68230;BME280;55048;52.220;5.160;2023-02-14T04:29:20;103278.47;;;3.90;83.23
68230;BME280;55048;52.220;5.160;2023-02-14T04:31:46;103276.97;;;3.88;83.32
68230;BME280;55048;52.220;5.160;2023-02-14T04:34:12;103335.59;;;4.20;83.32
68230;BME280;55048;52.220;5.160;2023-02-14T04:36:37;103248.22;;;3.75;83.47
68230;BME280;55048;52.220;5.160;2023-02-14T04:39:03;103325.31;;;4.17;83.54
68230;BME280;55048;52.220;5.160;2023-02-14T04:41:28;103261.25;;;3.76;83.16
68230;BME280;55048;52.220;5.160;2023-02-14T04:43:54;103268.34;;;3.86;83.19
68230;BME280;55048;52.220;5.160;2023-02-14T04:46:19;102963.66;;;1.97;83.17
68230;BME280;55048;52.220;5.160;2023-02-14T04:48:47;103208.34;;;3.49;83.36
68230;BME280;55048;52.220;5.160;2023-02-14T04:51:13;103259.00;;;3.72;83.61
68230;BME280;55048;52.220;5.160;2023-02-14T04:53:38;103023.31;;;2.37;83.13
68230;BME280;55048;52.220;5.160;2023-02-14T04:56:08;103208.34;;;3.49;82.99
68230;BME280;55048;52.220;5.160;2023-02-14T04:58:33;103329.47;;;4.20;83.17
68230;BME280;55048;52.220;5.160;2023-02-14T05:00:59;103293.47;;;3.99;82.88
68230;BME280;55048;52.220;5.160;2023-02-14T05:03:24;103281.53;;;3.95;82.91
68230;BME280;55048;52.220;5.160;2023-02-14T05:05:50;103312.25;;;4.06;83.14
68230;BME280;55048;52.220;5.160;2023-02-14T05:08:15;103276.78;;;3.79;83.25
68230;BME280;55048;52.220;5.160;2023-02-14T05:10:41;103153.00;;;2.99;83.07
68230;BME280;55048;52.220;5.160;2023-02-14T05:13:06;103317.03;;;4.01;83.27
68230;BME280;55048;52.220;5.160;2023-02-14T05:15:31;103205.81;;;3.38;83.15
68230;BME280;55048;52.220;5.160;2023-02-14T05:17:57;103215.69;;;3.45;83.10
68230;BME280;55048;52.220;5.160;2023-02-14T05:20:29;103321.38;;;4.02;83.12
68230;BME280;55048;52.220;5.160;2023-02-14T05:22:54;103321.91;;;4.05;83.21
68230;BME280;55048;52.220;5.160;2023-02-14T05:25:21;103273.81;;;3.73;83.33
68230;BME280;55048;52.220;5.160;2023-02-14T05:27:46;103257.47;;;3.69;82.80
68230;BME280;55048;52.220;5.160;2023-02-14T05:30:12;103265.50;;;3.68;83.08
68230;BME280;55048;52.220;5.160;2023-02-14T05:32:38;103312.34;;;4.04;83.11
68230;BME280;55048;52.220;5.160;2023-02-14T05:35:03;103305.78;;;3.89;83.16
68230;BME280;55048;52.220;5.160;2023-02-14T05:37:29;103243.25;;;3.51;82.88
68230;BME280;55048;52.220;5.160;2023-02-14T05:39:54;103140.94;;;2.96;82.99
68230;BME280;55048;52.220;5.160;2023-02-14T05:42:19;103277.72;;;3.69;83.30
68230;BME280;55048;52.220;5.160;2023-02-14T05:44:45;103330.22;;;4.01;83.47
68230;BME280;55048;52.220;5.160;2023-02-14T05:47:10;103312.16;;;3.96;83.25
68230;BME280;55048;52.220;5.160;2023-02-14T05:49:36;103261.97;;;3.57;82.92
68230;BME280;55048;52.220;5.160;2023-02-14T05:52:01;103272.44;;;3.69;83.16
68230;BME280;55048;52.220;5.160;2023-02-14T05:54:26;103334.94;;;3.97;83.17
68230;BME280;55048;52.220;5.160;2023-02-14T05:56:52;103209.28;;;3.38;83.05
68230;BME280;55048;52.220;5.160;2023-02-14T05:59:17;103172.59;;;3.16;82.97
68230;BME280;55048;52.220;5.160;2023-02-14T06:01:43;103278.84;;;3.76;83.02
68230;BME280;55048;52.220;5.160;2023-02-14T06:04:08;103164.53;;;3.07;83.18
68230;BME280;55048;52.220;5.160;2023-02-14T06:06:34;103292.19;;;3.84;83.20
68230;BME280;55048;52.220;5.160;2023-02-14T06:08:59;103308.84;;;3.94;82.87
68230;BME280;55048;52.220;5.160;2023-02-14T06:11:24;103269.34;;;3.64;82.96
68230;BME280;55048;52.220;5.160;2023-02-14T06:13:50;103186.41;;;3.08;83.06
68230;BME280;55048;52.220;5.160;2023-02-14T06:16:15;103230.75;;;3.43;83.09
68230;BME280;55048;52.220;5.160;2023-02-14T06:18:41;103269.22;;;3.65;83.11
68230;BME280;55048;52.220;5.160;2023-02-14T06:21:06;103268.78;;;3.60;83.25
68230;BME280;55048;52.220;5.160;2023-02-14T06:23:31;103323.25;;;3.90;83.19
68230;BME280;55048;52.220;5.160;2023-02-14T06:25:57;103297.69;;;3.81;82.87
68230;BME280;55048;52.220;5.160;2023-02-14T06:28:22;103312.84;;;3.89;82.87
68230;BME280;55048;52.220;5.160;2023-02-14T06:30:48;103307.25;;;3.82;83.03
68230;BME280;55048;52.220;5.160;2023-02-14T06:33:13;103248.78;;;3.48;83.32
68230;BME280;55048;52.220;5.160;2023-02-14T06:35:38;103305.00;;;3.77;83.28
68230;BME280;55048;52.220;5.160;2023-02-14T06:38:04;103285.72;;;3.67;83.04
68230;BME280;55048;52.220;5.160;2023-02-14T06:40:29;103241.53;;;3.40;83.03
68230;BME280;55048;52.220;5.160;2023-02-14T06:42:55;103196.41;;;3.14;83.66
68230;BME280;55048;52.220;5.160;2023-02-14T06:45:20;103308.03;;;3.73;83.12
68230;BME280;55048;52.220;5.160;2023-02-14T06:47:45;103259.06;;;3.51;83.03
68230;BME280;55048;52.220;5.160;2023-02-14T06:50:11;103286.09;;;3.63;82.95
68230;BME280;55048;52.220;5.160;2023-02-14T06:52:37;103277.66;;;3.59;82.99
68230;BME280;55048;52.220;5.160;2023-02-14T06:55:03;103268.84;;;3.49;83.09
68230;BME280;55048;52.220;5.160;2023-02-14T06:57:28;103232.06;;;3.28;82.98
68230;BME280;55048;52.220;5.160;2023-02-14T06:59:53;103214.22;;;3.11;82.91
68230;BME280;55048;52.220;5.160;2023-02-14T07:02:19;103191.34;;;3.01;82.95
68230;BME280;55048;52.220;5.160;2023-02-14T07:04:45;103321.78;;;3.76;82.98
68230;BME280;55048;52.220;5.160;2023-02-14T07:07:10;103290.09;;;3.57;83.31
68230;BME280;55048;52.220;5.160;2023-02-14T07:09:35;103277.09;;;3.55;83.26
68230;BME280;55048;52.220;5.160;2023-02-14T07:12:01;103300.81;;;3.65;83.14
68230;BME280;55048;52.220;5.160;2023-02-14T07:14:26;103291.38;;;3.63;83.21
68230;BME280;55048;52.220;5.160;2023-02-14T07:16:52;103282.66;;;3.62;83.25
68230;BME280;55048;52.220;5.160;2023-02-14T07:19:17;103288.50;;;3.66;83.01
68230;BME280;55048;52.220;5.160;2023-02-14T07:21:42;103314.47;;;3.80;83.02
68230;BME280;55048;52.220;5.160;2023-02-14T07:24:08;103307.41;;;3.80;83.22
68230;BME280;55048;52.220;5.160;2023-02-14T07:26:33;103303.25;;;3.78;82.98
68230;BME280;55048;52.220;5.160;2023-02-14T07:28:59;103288.09;;;3.70;82.92
68230;BME280;55048;52.220;5.160;2023-02-14T07:31:24;103295.28;;;3.68;83.30
68230;BME280;55048;52.220;5.160;2023-02-14T07:33:50;103285.72;;;3.67;83.21
68230;BME280;55048;52.220;5.160;2023-02-14T07:36:16;103313.25;;;3.84;83.34
68230;BME280;55048;52.220;5.160;2023-02-14T07:38:41;103313.00;;;3.87;83.12
68230;BME280;55048;52.220;5.160;2023-02-14T07:41:06;103319.78;;;3.90;83.30
68230;BME280;55048;52.220;5.160;2023-02-14T07:43:32;103314.25;;;3.93;83.44
68230;BME280;55048;52.220;5.160;2023-02-14T07:46:00;103309.69;;;3.95;83.35
68230;BME280;55048;52.220;5.160;2023-02-14T07:48:26;103322.88;;;4.04;83.41
68230;BME280;55048;52.220;5.160;2023-02-14T07:50:51;103314.28;;;4.02;83.41
68230;BME280;55048;52.220;5.160;2023-02-14T07:53:17;103284.03;;;3.87;83.44
68230;BME280;55048;52.220;5.160;2023-02-14T07:55:42;103325.84;;;4.11;83.47
68230;BME280;55048;52.220;5.160;2023-02-14T07:58:07;103323.09;;;4.22;83.69
68230;BME280;55048;52.220;5.160;2023-02-14T08:00:33;103305.88;;;4.18;83.08
68230;BME280;55048;52.220;5.160;2023-02-14T08:02:58;103301.44;;;4.19;83.34
68230;BME280;55048;52.220;5.160;2023-02-14T08:05:24;103322.16;;;4.33;83.70
68230;BME280;55048;52.220;5.160;2023-02-14T08:07:49;103297.47;;;4.24;83.68
68230;BME280;55048;52.220;5.160;2023-02-14T08:10:15;103324.88;;;4.52;83.72
68230;BME280;55048;52.220;5.160;2023-02-14T08:12:41;103301.00;;;4.44;83.92
68230;BME280;55048;52.220;5.160;2023-02-14T08:15:34;103321.28;;;4.63;84.27
68230;BME280;55048;52.220;5.160;2023-02-14T08:18:20;103307.78;;;4.56;84.46
68230;BME280;55048;52.220;5.160;2023-02-14T08:20:47;103310.16;;;4.59;84.77
68230;BME280;55048;52.220;5.160;2023-02-14T08:23:14;103334.47;;;4.82;84.87
68230;BME280;55048;52.220;5.160;2023-02-14T08:25:40;103334.75;;;4.89;85.67
68230;BME280;55048;52.220;5.160;2023-02-14T08:28:05;103279.66;;;4.57;84.62
68230;BME280;55048;52.220;5.160;2023-02-14T08:30:31;103335.63;;;4.99;84.84
68230;BME280;55048;52.220;5.160;2023-02-14T08:32:57;103255.22;;;4.55;85.49
68230;BME280;55048;52.220;5.160;2023-02-14T08:35:23;103277.56;;;4.80;84.75
68230;BME280;55048;52.220;5.160;2023-02-14T08:37:48;103352.13;;;5.21;84.85
68230;BME280;55048;52.220;5.160;2023-02-14T08:40:14;103324.50;;;5.25;85.48
68230;BME280;55048;52.220;5.160;2023-02-14T08:42:39;103273.44;;;4.87;85.38
68230;BME280;55048;52.220;5.160;2023-02-14T08:45:05;103284.94;;;4.96;85.30
68230;BME280;55048;52.220;5.160;2023-02-14T08:47:31;103324.34;;;5.26;85.45
68230;BME280;55048;52.220;5.160;2023-02-14T08:50:05;103336.25;;;5.50;85.16
68230;BME280;55048;52.220;5.160;2023-02-14T08:52:31;103219.56;;;4.80;87.08
68230;BME280;55048;52.220;5.160;2023-02-14T08:54:56;103335.97;;;5.62;85.44
68230;BME280;55048;52.220;5.160;2023-02-14T08:57:22;103315.44;;;5.56;85.87
68230;BME280;55048;52.220;5.160;2023-02-14T08:59:47;103334.00;;;5.74;86.84
68230;BME280;55048;52.220;5.160;2023-02-14T09:02:13;103322.91;;;5.71;86.83
68230;BME280;55048;52.220;5.160;2023-02-14T09:04:40;103332.84;;;5.86;86.35
68230;BME280;55048;52.220;5.160;2023-02-14T09:07:06;103287.44;;;5.73;86.04
68230;BME280;55048;52.220;5.160;2023-02-14T09:09:31;103322.81;;;6.00;87.35
68230;BME280;55048;52.220;5.160;2023-02-14T09:11:57;103294.91;;;5.97;85.38
68230;BME280;55048;52.220;5.160;2023-02-14T09:14:22;103207.38;;;5.45;85.15
68230;BME280;55048;52.220;5.160;2023-02-14T09:16:49;103319.53;;;6.25;86.13
68230;BME280;55048;52.220;5.160;2023-02-14T09:19:15;103291.09;;;6.09;85.53
68230;BME280;55048;52.220;5.160;2023-02-14T09:21:40;103292.19;;;6.17;85.32
68230;BME280;55048;52.220;5.160;2023-02-14T09:24:05;103316.63;;;6.46;85.42
68230;BME280;55048;52.220;5.160;2023-02-14T09:26:31;103310.59;;;6.54;84.79
68230;BME280;55048;52.220;5.160;2023-02-14T09:28:57;103312.81;;;6.58;86.21
68230;BME280;55048;52.220;5.160;2023-02-14T09:31:23;103154.59;;;5.73;85.33
68230;BME280;55048;52.220;5.160;2023-02-14T09:33:49;103304.56;;;6.79;85.76
68230;BME280;55048;52.220;5.160;2023-02-14T09:36:15;103309.13;;;6.87;85.77
68230;BME280;55048;52.220;5.160;2023-02-14T09:38:40;103191.31;;;6.21;85.74
68230;BME280;55048;52.220;5.160;2023-02-14T09:41:08;103248.97;;;6.53;85.97
68230;BME280;55048;52.220;5.160;2023-02-14T09:43:39;103309.25;;;7.03;85.58
68230;BME280;55048;52.220;5.160;2023-02-14T09:46:10;103276.56;;;6.86;85.67
68230;BME280;55048;52.220;5.160;2023-02-14T09:48:42;103312.44;;;7.07;86.18
68230;BME280;55048;52.220;5.160;2023-02-14T09:51:20;103251.69;;;6.79;85.83
68230;BME280;55048;52.220;5.160;2023-02-14T09:54:10;103247.59;;;6.85;85.78
68230;BME280;55048;52.220;5.160;2023-02-14T10:02:00;103292.50;;;7.38;85.59
68230;BME280;55048;52.220;5.160;2023-02-14T10:04:40;103242.53;;;7.18;85.34
68230;BME280;55048;52.220;5.160;2023-02-14T10:07:24;103302.78;;;7.67;85.13
68230;BME280;55048;52.220;5.160;2023-02-14T10:09:56;103309.47;;;7.80;84.92
68230;BME280;55048;52.220;5.160;2023-02-14T10:12:32;103304.19;;;7.88;84.59
68230;BME280;55048;52.220;5.160;2023-02-14T10:15:05;103235.16;;;7.55;84.53
68230;BME280;55048;52.220;5.160;2023-02-14T10:17:52;103288.31;;;7.88;84.38
68230;BME280;55048;52.220;5.160;2023-02-14T10:20:26;103305.47;;;8.10;84.22
68230;BME280;55048;52.220;5.160;2023-02-14T10:23:04;103300.66;;;8.05;83.96
68230;BME280;55048;52.220;5.160;2023-02-14T10:25:39;103289.06;;;8.06;84.47
68230;BME280;55048;52.220;5.160;2023-02-14T10:28:11;103286.41;;;8.06;83.88
68230;BME280;55048;52.220;5.160;2023-02-14T10:30:38;103194.66;;;7.63;83.36
68230;BME280;55048;52.220;5.160;2023-02-14T10:33:17;103254.13;;;8.03;83.23
68230;BME280;55048;52.220;5.160;2023-02-14T10:35:47;103298.84;;;8.40;83.36
68230;BME280;55048;52.220;5.160;2023-02-14T10:41:46;103292.56;;;8.57;82.24
68230;BME280;55048;52.220;5.160;2023-02-14T10:44:35;103296.19;;;8.48;80.90
68230;BME280;55048;52.220;5.160;2023-02-14T10:53:29;103256.75;;;8.53;81.56
68230;BME280;55048;52.220;5.160;2023-02-14T10:56:01;103276.69;;;8.74;80.49
68230;BME280;55048;52.220;5.160;2023-02-14T10:58:32;103291.28;;;8.86;80.62
68230;BME280;55048;52.220;5.160;2023-02-14T11:01:05;103219.78;;;8.52;80.76
68230;BME280;55048;52.220;5.160;2023-02-14T11:03:33;103292.31;;;9.09;80.45
68230;BME280;55048;52.220;5.160;2023-02-14T11:06:00;103186.47;;;8.57;79.71
68230;BME280;55048;52.220;5.160;2023-02-14T11:08:34;103204.72;;;8.68;79.41
68230;BME280;55048;52.220;5.160;2023-02-14T11:11:07;103230.41;;;8.92;78.91
68230;BME280;55048;52.220;5.160;2023-02-14T11:13:38;103293.75;;;9.44;79.38
68230;BME280;55048;52.220;5.160;2023-02-14T11:16:10;103196.41;;;8.96;79.01
68230;BME280;55048;52.220;5.160;2023-02-14T11:18:38;103286.59;;;9.61;78.90
68230;BME280;55048;52.220;5.160;2023-02-14T11:21:12;103285.91;;;9.67;78.56
68230;BME280;55048;52.220;5.160;2023-02-14T11:23:40;103288.88;;;9.73;78.12
68230;BME280;55048;52.220;5.160;2023-02-14T11:28:42;103271.56;;;9.85;77.67
68230;BME280;55048;52.220;5.160;2023-02-14T11:31:10;103206.44;;;9.41;77.13
68230;BME280;55048;52.220;5.160;2023-02-14T11:33:40;103210.72;;;9.51;77.21
68230;BME280;55048;52.220;5.160;2023-02-14T11:36:12;103252.97;;;9.77;77.22
68230;BME280;55048;52.220;5.160;2023-02-14T11:38:39;103258.72;;;9.96;77.03
68230;BME280;55048;52.220;5.160;2023-02-14T11:41:08;103213.00;;;9.70;76.83
68230;BME280;55048;52.220;5.160;2023-02-14T11:43:39;103253.47;;;10.11;76.63
68230;BME280;55048;52.220;5.160;2023-02-14T11:46:15;103252.81;;;10.17;76.56
68230;BME280;55048;52.220;5.160;2023-02-14T11:48:59;103216.34;;;10.03;76.41
68230;BME280;55048;52.220;5.160;2023-02-14T11:51:33;103245.94;;;10.31;76.18
68230;BME280;55048;52.220;5.160;2023-02-14T11:54:00;103242.59;;;10.37;75.85
68230;BME280;55048;52.220;5.160;2023-02-14T11:56:50;103237.03;;;10.47;75.31
68230;BME280;55048;52.220;5.160;2023-02-14T11:59:25;103236.16;;;10.55;75.38
68230;BME280;55048;52.220;5.160;2023-02-14T12:01:52;103177.78;;;10.30;74.93
68230;BME280;55048;52.220;5.160;2023-02-14T12:04:24;103183.53;;;10.42;75.18
68230;BME280;55048;52.220;5.160;2023-02-14T12:06:51;103160.13;;;10.37;74.87
68230;BME280;55048;52.220;5.160;2023-02-14T12:11:54;103201.34;;;10.79;73.11
68230;BME280;55048;52.220;5.160;2023-02-14T12:14:26;103199.72;;;10.78;71.85
68230;BME280;55048;52.220;5.160;2023-02-14T12:17:08;103161.75;;;10.61;73.46
68230;BME280;55048;52.220;5.160;2023-02-14T12:19:58;103197.34;;;10.83;72.90
68230;BME280;55048;52.220;5.160;2023-02-14T12:22:38;103182.75;;;10.94;72.74
68230;BME280;55048;52.220;5.160;2023-02-14T12:25:13;103177.34;;;11.02;72.12
68230;BME280;55048;52.220;5.160;2023-02-14T12:30:20;103182.50;;;11.18;72.41
68230;BME280;55048;52.220;5.160;2023-02-14T12:32:51;103182.59;;;11.25;71.66
68230;BME280;55048;52.220;5.160;2023-02-14T12:38:43;103147.31;;;11.08;70.81
68230;BME280;55048;52.220;5.160;2023-02-14T12:44:14;103145.94;;;11.12;70.08
68230;BME280;55048;52.220;5.160;2023-02-14T12:46:56;103161.00;;;11.35;69.94
68230;BME280;55048;52.220;5.160;2023-02-14T12:57:58;103153.28;;;11.40;68.43
68230;BME280;55048;52.220;5.160;2023-02-14T13:03:29;103139.03;;;11.62;68.88
68230;BME280;55048;52.220;5.160;2023-02-14T13:06:03;103139.47;;;11.66;67.98
68230;BME280;55048;52.220;5.160;2023-02-14T13:16:59;103105.75;;;11.58;67.44
68230;BME280;55048;52.220;5.160;2023-02-14T13:19:50;103097.97;;;11.57;66.88
68230;BME280;55048;52.220;5.160;2023-02-14T13:22:20;103129.88;;;11.86;65.81
68230;BME280;55048;52.220;5.160;2023-02-14T13:24:49;103111.47;;;11.91;66.16
68230;BME280;55048;52.220;5.160;2023-02-14T13:27:24;103115.22;;;11.97;66.55
68230;BME280;55048;52.220;5.160;2023-02-14T13:29:58;103122.09;;;12.06;65.98
68230;BME280;55048;52.220;5.160;2023-02-14T13:32:30;103036.47;;;11.58;65.55
68230;BME280;55048;52.220;5.160;2023-02-14T13:34:57;102989.84;;;11.33;65.25
68230;BME280;55048;52.220;5.160;2023-02-14T13:37:24;103105.25;;;12.06;65.41
68230;BME280;55048;52.220;5.160;2023-02-14T13:39:57;103039.19;;;11.65;65.48
68230;BME280;55048;52.220;5.160;2023-02-14T13:48:05;103092.88;;;11.98;64.63
68230;BME280;55048;52.220;5.160;2023-02-14T13:53:34;103082.97;;;11.92;64.64
68230;BME280;55048;52.220;5.160;2023-02-14T13:56:30;103086.59;;;12.06;64.28
68230;BME280;55048;52.220;5.160;2023-02-14T13:59:04;103083.66;;;12.00;64.22
68230;BME280;55048;52.220;5.160;2023-02-14T14:01:45;103038.69;;;11.76;61.94
68230;BME280;55048;52.220;5.160;2023-02-14T14:17:33;103088.31;;;12.13;62.82
68230;BME280;55048;52.220;5.160;2023-02-14T14:20:00;103077.41;;;12.08;62.99
68230;BME280;55048;52.220;5.160;2023-02-14T14:22:28;103065.56;;;11.96;63.10
68230;BME280;55048;52.220;5.160;2023-02-14T14:29:59;103074.19;;;11.98;63.03
68230;BME280;55048;52.220;5.160;2023-02-14T14:34:56;103077.16;;;12.03;63.27
68230;BME280;55048;52.220;5.160;2023-02-14T14:37:25;103074.84;;;12.00;62.91
68230;BME280;55048;52.220;5.160;2023-02-14T14:39:56;103073.38;;;11.97;62.97
68230;BME280;55048;52.220;5.160;2023-02-14T14:42:24;103028.22;;;11.74;63.18
68230;BME280;55048;52.220;5.160;2023-02-14T14:44:58;103054.09;;;11.95;63.24
68230;BME280;55048;52.220;5.160;2023-02-14T14:47:43;103052.63;;;11.93;63.24
68230;BME280;55048;52.220;5.160;2023-02-14T14:50:16;103031.84;;;11.88;63.04
68230;BME280;55048;52.220;5.160;2023-02-14T14:52:45;103063.16;;;12.01;62.90
68230;BME280;55048;52.220;5.160;2023-02-14T14:55:21;103051.75;;;11.86;62.80
68230;BME280;55048;52.220;5.160;2023-02-14T14:57:50;103054.28;;;11.94;63.06
68230;BME280;55048;52.220;5.160;2023-02-14T15:03:13;103053.25;;;11.95;63.07
68230;BME280;55048;52.220;5.160;2023-02-14T15:05:45;103066.84;;;12.00;63.00
68230;BME280;55048;52.220;5.160;2023-02-14T15:08:18;103067.47;;;12.02;63.13
68230;BME280;55048;52.220;5.160;2023-02-14T15:10:50;103035.84;;;11.78;62.90
68230;BME280;55048;52.220;5.160;2023-02-14T15:13:20;103023.91;;;11.73;63.25